sensor_id;sensor_type;location;lat;lon;timestamp;P1;durP1;ratioP1;P2;durP2;ratioP2
13455;SDS011;6800;50.940;6.940;2023-04-24T00:03:06;2.60;;;1.83;;
13455;SDS011;6800;50.940;6.940;2023-04-24T00:07:09;1.93;;;1.73;;
13455;SDS011;6800;50.940;6.940;2023-04-24T00:11:10;1.70;;;1.60;;
13455;SDS011;6800;50.940;6.940;2023-04-24T00:15:11;1.30;;;1.20;;
13455;SDS011;6800;50.940;6.940;2023-04-24T00:19:13;1.63;;;1.50;;
13455;SDS011;6800;50.940;6.940;2023-04-24T00:23:14;1.47;;;1.10;;
13455;SDS011;6800;50.940;6.940;2023-04-24T00:27:16;1.30;;;1.20;;
13455;SDS011;6800;50.940;6.940;2023-04-24T00:31:17;1.20;;;1.20;;
13455;SDS011;6800;50.940;6.940;2023-04-24T00:35:18;1.60;;;1.50;;
13455;SDS011;6800;50.940;6.940;2023-04-24T00:39:21;2.17;;;1.43;;
13455;SDS011;6800;50.940;6.940;2023-04-24T00:43:23;1.30;;;1.20;;
13455;SDS011;6800;50.940;6.940;2023-04-24T00:47:25;2.23;;;1.70;;
13455;SDS011;6800;50.940;6.940;2023-04-24T00:51:27;1.50;;;1.40;;
13455;SDS011;6800;50.940;6.940;2023-04-24T00:55:30;1.43;;;1.30;;
13455;SDS011;6800;50.940;6.940;2023-04-24T00:59:33;1.50;;;1.40;;
13455;SDS011;6800;50.940;6.940;2023-04-24T01:03:34;2.33;;;1.47;;
13455;SDS011;6800;50.940;6.940;2023-04-24T01:07:39;1.50;;;1.40;;
13455;SDS011;6800;50.940;6.940;2023-04-24T01:11:41;1.40;;;1.30;;
13455;SDS011;6800;50.940;6.940;2023-04-24T01:15:45;1.40;;;1.30;;
13455;SDS011;6800;50.940;6.940;2023-04-24T01:19:47;1.50;;;1.40;;
13455;SDS011;6800;50.940;6.940;2023-04-24T01:23:48;1.50;;;1.30;;
13455;SDS011;6800;50.940;6.940;2023-04-24T01:27:50;2.50;;;1.63;;
13455;SDS011;6800;50.940;6.940;2023-04-24T01:31:52;1.40;;;1.30;;
13455;SDS011;6800;50.940;6.940;2023-04-24T01:35:54;2.50;;;2.30;;
13455;SDS011;6800;50.940;6.940;2023-04-24T01:39:56;3.00;;;2.70;;
13455;SDS011;6800;50.940;6.940;2023-04-24T01:43:57;3.30;;;3.00;;
13455;SDS011;6800;50.940;6.940;2023-04-24T01:47:59;3.43;;;3.10;;
13455;SDS011;6800;50.940;6.940;2023-04-24T01:52:01;3.30;;;3.00;;
13455;SDS011;6800;50.940;6.940;2023-04-24T01:56:03;4.10;;;3.67;;
13455;SDS011;6800;50.940;6.940;2023-04-24T02:00:05;3.83;;;3.53;;
13455;SDS011;6800;50.940;6.940;2023-04-24T02:04:08;4.30;;;3.83;;
13455;SDS011;6800;50.940;6.940;2023-04-24T02:08:10;4.57;;;4.17;;
13455;SDS011;6800;50.940;6.940;2023-04-24T02:12:11;4.33;;;3.93;;
13455;SDS011;6800;50.940;6.940;2023-04-24T02:16:12;4.77;;;4.30;;
13455;SDS011;6800;50.940;6.940;2023-04-24T02:20:14;5.60;;;4.37;;
13455;SDS011;6800;50.940;6.940;2023-04-24T02:24:15;4.90;;;4.40;;
13455;SDS011;6800;50.940;6.940;2023-04-24T02:28:17;4.93;;;4.43;;
13455;SDS011;6800;50.940;6.940;2023-04-24T02:32:18;5.67;;;4.87;;
13455;SDS011;6800;50.940;6.940;2023-04-24T02:36:20;6.23;;;5.17;;
13455;SDS011;6800;50.940;6.940;2023-04-24T02:40:22;6.00;;;5.43;;
13455;SDS011;6800;50.940;6.940;2023-04-24T02:44:23;5.93;;;5.33;;
13455;SDS011;6800;50.940;6.940;2023-04-24T02:48:24;7.97;;;5.70;;
13455;SDS011;6800;50.940;6.940;2023-04-24T02:52:26;6.30;;;5.70;;
13455;SDS011;6800;50.940;6.940;2023-04-24T02:56:27;5.90;;;5.40;;
13455;SDS011;6800;50.940;6.940;2023-04-24T03:00:28;6.33;;;5.77;;
13455;SDS011;6800;50.940;6.940;2023-04-24T03:04:30;6.00;;;5.50;;
13455;SDS011;6800;50.940;6.940;2023-04-24T03:08:33;7.10;;;6.40;;
13455;SDS011;6800;50.940;6.940;2023-04-24T03:12:35;6.90;;;6.20;;
13455;SDS011;6800;50.940;6.940;2023-04-24T03:16:36;7.73;;;6.50;;
13455;SDS011;6800;50.940;6.940;2023-04-24T03:20:38;8.23;;;6.90;;
13455;SDS011;6800;50.940;6.940;2023-04-24T03:24:39;8.00;;;7.30;;
13455;SDS011;6800;50.940;6.940;2023-04-24T03:28:41;6.93;;;6.27;;
13455;SDS011;6800;50.940;6.940;2023-04-24T03:32:43;7.37;;;6.30;;
13455;SDS011;6800;50.940;6.940;2023-04-24T03:36:44;8.43;;;6.73;;
13455;SDS011;6800;50.940;6.940;2023-04-24T03:40:48;7.10;;;6.50;;
13455;SDS011;6800;50.940;6.940;2023-04-24T03:44:49;8.03;;;6.90;;
13455;SDS011;6800;50.940;6.940;2023-04-24T03:48:51;6.93;;;6.33;;
13455;SDS011;6800;50.940;6.940;2023-04-24T03:52:52;7.13;;;6.23;;
13455;SDS011;6800;50.940;6.940;2023-04-24T03:56:54;7.00;;;6.27;;
13455;SDS011;6800;50.940;6.940;2023-04-24T04:00:55;7.60;;;6.80;;
13455;SDS011;6800;50.940;6.940;2023-04-24T04:04:59;7.50;;;6.77;;
13455;SDS011;6800;50.940;6.940;2023-04-24T04:09:00;7.40;;;6.80;;
13455;SDS011;6800;50.940;6.940;2023-04-24T04:13:02;8.07;;;6.30;;
13455;SDS011;6800;50.940;6.940;2023-04-24T04:17:03;7.93;;;6.67;;
13455;SDS011;6800;50.940;6.940;2023-04-24T04:21:05;8.73;;;7.10;;
13455;SDS011;6800;50.940;6.940;2023-04-24T04:25:06;6.90;;;5.87;;
13455;SDS011;6800;50.940;6.940;2023-04-24T04:29:08;7.70;;;6.90;;
13455;SDS011;6800;50.940;6.940;2023-04-24T04:33:11;6.53;;;5.90;;
13455;SDS011;6800;50.940;6.940;2023-04-24T04:37:13;8.40;;;6.37;;
13455;SDS011;6800;50.940;6.940;2023-04-24T04:41:15;9.20;;;6.20;;
13455;SDS011;6800;50.940;6.940;2023-04-24T04:45:18;6.80;;;6.20;;
13455;SDS011;6800;50.940;6.940;2023-04-24T04:49:19;9.30;;;6.10;;
13455;SDS011;6800;50.940;6.940;2023-04-24T04:53:22;7.17;;;6.30;;
13455;SDS011;6800;50.940;6.940;2023-04-24T04:57:24;6.33;;;5.73;;
13455;SDS011;6800;50.940;6.940;2023-04-24T05:01:25;7.03;;;6.33;;
13455;SDS011;6800;50.940;6.940;2023-04-24T05:05:28;9.23;;;7.13;;
13455;SDS011;6800;50.940;6.940;2023-04-24T05:09:30;7.03;;;6.37;;
13455;SDS011;6800;50.940;6.940;2023-04-24T05:13:31;7.10;;;6.50;;
13455;SDS011;6800;50.940;6.940;2023-04-24T05:17:41;6.00;;;5.50;;
13455;SDS011;6800;50.940;6.940;2023-04-24T05:21:42;7.33;;;6.53;;
13455;SDS011;6800;50.940;6.940;2023-04-24T05:25:44;6.83;;;6.17;;
13455;SDS011;6800;50.940;6.940;2023-04-24T05:29:47;9.13;;;5.80;;
13455;SDS011;6800;50.940;6.940;2023-04-24T05:33:48;6.57;;;5.87;;
13455;SDS011;6800;50.940;6.940;2023-04-24T05:37:50;6.00;;;5.43;;
13455;SDS011;6800;50.940;6.940;2023-04-24T05:41:51;7.10;;;5.77;;
13455;SDS011;6800;50.940;6.940;2023-04-24T05:45:54;9.03;;;5.30;;
13455;SDS011;6800;50.940;6.940;2023-04-24T05:49:56;7.27;;;5.70;;
13455;SDS011;6800;50.940;6.940;2023-04-24T05:53:57;6.60;;;5.80;;
13455;SDS011;6800;50.940;6.940;2023-04-24T05:58:04;8.27;;;6.50;;
13455;SDS011;6800;50.940;6.940;2023-04-24T06:02:06;9.17;;;6.87;;
13455;SDS011;6800;50.940;6.940;2023-04-24T06:06:08;6.80;;;6.13;;
13455;SDS011;6800;50.940;6.940;2023-04-24T06:10:10;7.23;;;6.53;;
13455;SDS011;6800;50.940;6.940;2023-04-24T06:14:12;6.93;;;5.80;;
13455;SDS011;6800;50.940;6.940;2023-04-24T06:18:13;4.97;;;4.40;;
13455;SDS011;6800;50.940;6.940;2023-04-24T06:22:14;6.20;;;5.60;;
13455;SDS011;6800;50.940;6.940;2023-04-24T06:26:16;4.63;;;4.23;;
13455;SDS011;6800;50.940;6.940;2023-04-24T06:30:17;5.23;;;3.60;;
13455;SDS011;6800;50.940;6.940;2023-04-24T06:34:19;4.30;;;3.90;;
13455;SDS011;6800;50.940;6.940;2023-04-24T06:38:20;4.60;;;3.17;;
13455;SDS011;6800;50.940;6.940;2023-04-24T06:42:21;3.73;;;3.43;;
13455;SDS011;6800;50.940;6.940;2023-04-24T06:46:23;5.53;;;3.23;;
13455;SDS011;6800;50.940;6.940;2023-04-24T06:50:27;4.37;;;3.50;;
13455;SDS011;6800;50.940;6.940;2023-04-24T06:54:29;3.97;;;3.10;;
13455;SDS011;6800;50.940;6.940;2023-04-24T06:58:31;3.97;;;3.67;;
13455;SDS011;6800;50.940;6.940;2023-04-24T07:02:32;3.63;;;3.33;;
13455;SDS011;6800;50.940;6.940;2023-04-24T07:06:34;3.47;;;3.17;;
13455;SDS011;6800;50.940;6.940;2023-04-24T07:10:37;3.90;;;3.60;;
13455;SDS011;6800;50.940;6.940;2023-04-24T07:14:39;4.00;;;3.60;;
13455;SDS011;6800;50.940;6.940;2023-04-24T07:18:41;3.50;;;3.20;;
13455;SDS011;6800;50.940;6.940;2023-04-24T07:22:42;4.03;;;3.40;;
13455;SDS011;6800;50.940;6.940;2023-04-24T07:26:43;4.13;;;3.67;;
13455;SDS011;6800;50.940;6.940;2023-04-24T07:30:45;4.50;;;3.93;;
13455;SDS011;6800;50.940;6.940;2023-04-24T07:34:46;3.67;;;3.37;;
13455;SDS011;6800;50.940;6.940;2023-04-24T07:38:47;6.23;;;4.93;;
13455;SDS011;6800;50.940;6.940;2023-04-24T07:42:49;3.90;;;3.60;;
13455;SDS011;6800;50.940;6.940;2023-04-24T07:46:51;3.43;;;3.13;;
13455;SDS011;6800;50.940;6.940;2023-04-24T07:50:52;2.90;;;2.70;;
13455;SDS011;6800;50.940;6.940;2023-04-24T07:54:54;2.63;;;2.43;;
13455;SDS011;6800;50.940;6.940;2023-04-24T07:58:59;3.10;;;2.50;;
13455;SDS011;6800;50.940;6.940;2023-04-24T08:03:02;2.53;;;2.33;;
13455;SDS011;6800;50.940;6.940;2023-04-24T08:07:03;2.77;;;2.57;;
13455;SDS011;6800;50.940;6.940;2023-04-24T08:11:05;2.67;;;2.47;;
13455;SDS011;6800;50.940;6.940;2023-04-24T08:15:06;2.90;;;2.67;;
13455;SDS011;6800;50.940;6.940;2023-04-24T08:19:08;3.10;;;2.90;;
13455;SDS011;6800;50.940;6.940;2023-04-24T08:23:09;3.00;;;2.27;;
13455;SDS011;6800;50.940;6.940;2023-04-24T08:27:11;3.47;;;3.17;;
13455;SDS011;6800;50.940;6.940;2023-04-24T08:31:12;2.77;;;2.50;;
13455;SDS011;6800;50.940;6.940;2023-04-24T08:35:14;2.70;;;2.50;;
13455;SDS011;6800;50.940;6.940;2023-04-24T08:39:15;2.90;;;2.70;;
13455;SDS011;6800;50.940;6.940;2023-04-24T08:43:20;2.83;;;2.60;;
13455;SDS011;6800;50.940;6.940;2023-04-24T08:47:23;3.20;;;2.90;;
13455;SDS011;6800;50.940;6.940;2023-04-24T08:51:26;4.17;;;2.97;;
13455;SDS011;6800;50.940;6.940;2023-04-24T08:55:27;3.83;;;3.47;;
13455;SDS011;6800;50.940;6.940;2023-04-24T08:59:31;4.37;;;3.97;;
13455;SDS011;6800;50.940;6.940;2023-04-24T09:03:33;5.03;;;4.40;;
13455;SDS011;6800;50.940;6.940;2023-04-24T09:07:35;5.67;;;5.17;;
13455;SDS011;6800;50.940;6.940;2023-04-24T09:11:37;6.20;;;5.40;;
13455;SDS011;6800;50.940;6.940;2023-04-24T09:15:39;6.83;;;5.40;;
13455;SDS011;6800;50.940;6.940;2023-04-24T09:19:41;8.00;;;7.20;;
13455;SDS011;6800;50.940;6.940;2023-04-24T09:23:43;9.27;;;7.20;;
13455;SDS011;6800;50.940;6.940;2023-04-24T09:27:45;9.23;;;8.33;;
13455;SDS011;6800;50.940;6.940;2023-04-24T09:31:47;10.23;;;8.47;;
13455;SDS011;6800;50.940;6.940;2023-04-24T09:35:49;9.03;;;8.13;;
13455;SDS011;6800;50.940;6.940;2023-04-24T09:40:37;11.93;;;8.90;;
13455;SDS011;6800;50.940;6.940;2023-04-24T09:44:21;10.60;;;9.20;;
13455;SDS011;6800;50.940;6.940;2023-04-24T09:48:29;11.57;;;9.90;;
13455;SDS011;6800;50.940;6.940;2023-04-24T09:52:32;10.93;;;9.83;;
13455;SDS011;6800;50.940;6.940;2023-04-24T09:56:33;13.30;;;9.87;;
13455;SDS011;6800;50.940;6.940;2023-04-24T10:00:35;11.90;;;10.70;;
13455;SDS011;6800;50.940;6.940;2023-04-24T10:04:37;13.20;;;10.30;;
13455;SDS011;6800;50.940;6.940;2023-04-24T10:08:38;11.80;;;9.93;;
13455;SDS011;6800;50.940;6.940;2023-04-24T10:12:40;9.00;;;8.10;;
13455;SDS011;6800;50.940;6.940;2023-04-24T10:16:43;8.53;;;7.70;;
13455;SDS011;6800;50.940;6.940;2023-04-24T10:20:45;11.53;;;8.53;;
13455;SDS011;6800;50.940;6.940;2023-04-24T10:24:47;9.83;;;8.40;;
13455;SDS011;6800;50.940;6.940;2023-04-24T10:28:51;11.30;;;7.00;;
13455;SDS011;6800;50.940;6.940;2023-04-24T10:32:53;8.70;;;5.90;;
13455;SDS011;6800;50.940;6.940;2023-04-24T10:36:55;9.77;;;6.37;;
13455;SDS011;6800;50.940;6.940;2023-04-24T10:41:11;8.57;;;5.60;;
13455;SDS011;6800;50.940;6.940;2023-04-24T10:45:22;9.97;;;5.43;;
13455;SDS011;6800;50.940;6.940;2023-04-24T10:49:28;8.13;;;4.70;;
13455;SDS011;6800;50.940;6.940;2023-04-24T10:53:31;7.93;;;5.50;;
13455;SDS011;6800;50.940;6.940;2023-04-24T10:57:35;10.40;;;4.90;;
13455;SDS011;6800;50.940;6.940;2023-04-24T11:01:37;9.50;;;6.33;;
13455;SDS011;6800;50.940;6.940;2023-04-24T11:05:49;8.73;;;5.20;;
13455;SDS011;6800;50.940;6.940;2023-04-24T11:09:57;5.73;;;4.50;;
13455;SDS011;6800;50.940;6.940;2023-04-24T11:18:02;5.57;;;4.57;;
13455;SDS011;6800;50.940;6.940;2023-04-24T11:22:04;6.50;;;4.90;;
13455;SDS011;6800;50.940;6.940;2023-04-24T11:26:18;11.30;;;5.60;;
13455;SDS011;6800;50.940;6.940;2023-04-24T11:30:22;8.57;;;4.80;;
13455;SDS011;6800;50.940;6.940;2023-04-24T11:34:24;5.97;;;4.80;;
13455;SDS011;6800;50.940;6.940;2023-04-24T11:38:25;9.20;;;4.87;;
13455;SDS011;6800;50.940;6.940;2023-04-24T11:42:28;8.47;;;5.10;;
13455;SDS011;6800;50.940;6.940;2023-04-24T11:46:34;7.17;;;4.80;;
13455;SDS011;6800;50.940;6.940;2023-04-24T11:50:36;9.10;;;4.60;;
13455;SDS011;6800;50.940;6.940;2023-04-24T11:54:37;5.53;;;4.47;;
13455;SDS011;6800;50.940;6.940;2023-04-24T11:58:41;7.17;;;4.27;;
13455;SDS011;6800;50.940;6.940;2023-04-24T12:02:42;9.87;;;4.53;;
13455;SDS011;6800;50.940;6.940;2023-04-24T12:07:02;6.77;;;4.03;;
13455;SDS011;6800;50.940;6.940;2023-04-24T12:11:06;7.70;;;4.00;;
13455;SDS011;6800;50.940;6.940;2023-04-24T12:15:08;9.57;;;4.67;;
13455;SDS011;6800;50.940;6.940;2023-04-24T12:19:10;8.70;;;4.20;;
13455;SDS011;6800;50.940;6.940;2023-04-24T12:23:11;7.23;;;3.90;;
13455;SDS011;6800;50.940;6.940;2023-04-24T12:27:19;7.17;;;4.30;;
13455;SDS011;6800;50.940;6.940;2023-04-24T12:31:21;9.50;;;4.73;;
13455;SDS011;6800;50.940;6.940;2023-04-24T12:35:24;9.23;;;4.23;;
13455;SDS011;6800;50.940;6.940;2023-04-24T12:39:28;9.90;;;5.10;;
13455;SDS011;6800;50.940;6.940;2023-04-24T12:43:29;7.40;;;4.80;;
13455;SDS011;6800;50.940;6.940;2023-04-24T12:47:31;9.87;;;4.67;;
13455;SDS011;6800;50.940;6.940;2023-04-24T12:51:33;6.37;;;4.20;;
13455;SDS011;6800;50.940;6.940;2023-04-24T12:55:35;12.00;;;4.77;;
13455;SDS011;6800;50.940;6.940;2023-04-24T12:59:37;8.73;;;4.87;;
13455;SDS011;6800;50.940;6.940;2023-04-24T13:03:40;9.33;;;4.80;;
13455;SDS011;6800;50.940;6.940;2023-04-24T13:07:42;8.53;;;4.50;;
13455;SDS011;6800;50.940;6.940;2023-04-24T13:11:43;11.13;;;5.43;;
13455;SDS011;6800;50.940;6.940;2023-04-24T13:15:44;11.47;;;5.50;;
13455;SDS011;6800;50.940;6.940;2023-04-24T13:19:46;9.10;;;4.57;;
13455;SDS011;6800;50.940;6.940;2023-04-24T13:23:47;8.40;;;4.87;;
13455;SDS011;6800;50.940;6.940;2023-04-24T13:27:48;8.83;;;5.20;;
13455;SDS011;6800;50.940;6.940;2023-04-24T13:31:50;10.13;;;4.40;;
13455;SDS011;6800;50.940;6.940;2023-04-24T13:35:52;6.60;;;4.70;;
13455;SDS011;6800;50.940;6.940;2023-04-24T13:39:53;6.73;;;4.60;;
13455;SDS011;6800;50.940;6.940;2023-04-24T13:43:55;7.20;;;4.20;;
13455;SDS011;6800;50.940;6.940;2023-04-24T13:47:59;6.93;;;3.90;;
13455;SDS011;6800;50.940;6.940;2023-04-24T13:52:01;10.13;;;4.50;;
13455;SDS011;6800;50.940;6.940;2023-04-24T13:56:03;6.53;;;4.07;;
13455;SDS011;6800;50.940;6.940;2023-04-24T14:00:04;8.77;;;4.13;;
13455;SDS011;6800;50.940;6.940;2023-04-24T14:04:07;8.30;;;5.00;;
13455;SDS011;6800;50.940;6.940;2023-04-24T14:08:09;7.23;;;4.17;;
13455;SDS011;6800;50.940;6.940;2023-04-24T14:12:10;8.93;;;4.20;;
13455;SDS011;6800;50.940;6.940;2023-04-24T14:16:11;5.77;;;3.80;;
13455;SDS011;6800;50.940;6.940;2023-04-24T14:20:13;7.00;;;4.17;;
13455;SDS011;6800;50.940;6.940;2023-04-24T14:24:15;7.43;;;3.97;;
13455;SDS011;6800;50.940;6.940;2023-04-24T14:28:20;8.43;;;4.17;;
13455;SDS011;6800;50.940;6.940;2023-04-24T14:32:22;7.00;;;4.23;;
13455;SDS011;6800;50.940;6.940;2023-04-24T14:36:23;5.73;;;3.77;;
13455;SDS011;6800;50.940;6.940;2023-04-24T14:40:25;5.73;;;4.03;;
13455;SDS011;6800;50.940;6.940;2023-04-24T14:44:29;7.97;;;4.17;;
13455;SDS011;6800;50.940;6.940;2023-04-24T14:48:31;8.27;;;4.77;;
13455;SDS011;6800;50.940;6.940;2023-04-24T14:52:32;6.93;;;3.60;;
13455;SDS011;6800;50.940;6.940;2023-04-24T14:56:33;5.63;;;3.97;;
13455;SDS011;6800;50.940;6.940;2023-04-24T15:00:35;6.33;;;4.40;;
13455;SDS011;6800;50.940;6.940;2023-04-24T15:04:38;8.10;;;4.10;;
13455;SDS011;6800;50.940;6.940;2023-04-24T15:08:39;6.40;;;4.10;;
13455;SDS011;6800;50.940;6.940;2023-04-24T15:12:41;5.13;;;3.10;;
13455;SDS011;6800;50.940;6.940;2023-04-24T15:16:42;7.57;;;3.60;;
13455;SDS011;6800;50.940;6.940;2023-04-24T15:20:44;5.87;;;3.40;;
13455;SDS011;6800;50.940;6.940;2023-04-24T15:24:45;7.80;;;4.00;;
13455;SDS011;6800;50.940;6.940;2023-04-24T15:28:47;6.27;;;3.77;;
13455;SDS011;6800;50.940;6.940;2023-04-24T15:32:48;5.17;;;3.30;;
13455;SDS011;6800;50.940;6.940;2023-04-24T15:36:50;5.63;;;3.27;;
13455;SDS011;6800;50.940;6.940;2023-04-24T15:40:51;6.07;;;3.60;;
13455;SDS011;6800;50.940;6.940;2023-04-24T15:44:52;6.00;;;3.77;;
13455;SDS011;6800;50.940;6.940;2023-04-24T15:48:54;9.70;;;4.23;;
13455;SDS011;6800;50.940;6.940;2023-04-24T15:52:55;6.97;;;4.13;;
13455;SDS011;6800;50.940;6.940;2023-04-24T15:56:57;6.33;;;4.27;;
13455;SDS011;6800;50.940;6.940;2023-04-24T16:00:58;5.27;;;3.90;;
13455;SDS011;6800;50.940;6.940;2023-04-24T16:05:00;5.60;;;3.70;;
13455;SDS011;6800;50.940;6.940;2023-04-24T16:09:01;7.80;;;3.93;;
13455;SDS011;6800;50.940;6.940;2023-04-24T16:13:04;6.93;;;3.90;;
13455;SDS011;6800;50.940;6.940;2023-04-24T16:17:05;6.27;;;3.57;;
13455;SDS011;6800;50.940;6.940;2023-04-24T16:21:06;6.20;;;3.97;;
13455;SDS011;6800;50.940;6.940;2023-04-24T16:25:09;6.00;;;3.70;;
13455;SDS011;6800;50.940;6.940;2023-04-24T16:29:10;5.43;;;3.70;;
13455;SDS011;6800;50.940;6.940;2023-04-24T16:33:12;5.80;;;4.30;;
13455;SDS011;6800;50.940;6.940;2023-04-24T16:37:13;5.13;;;3.37;;
13455;SDS011;6800;50.940;6.940;2023-04-24T16:41:15;5.43;;;3.30;;
13455;SDS011;6800;50.940;6.940;2023-04-24T16:45:16;5.03;;;3.57;;
13455;SDS011;6800;50.940;6.940;2023-04-24T16:49:18;5.37;;;2.83;;
13455;SDS011;6800;50.940;6.940;2023-04-24T16:53:19;3.80;;;3.13;;
13455;SDS011;6800;50.940;6.940;2023-04-24T16:57:21;4.37;;;2.97;;
13455;SDS011;6800;50.940;6.940;2023-04-24T17:01:23;6.00;;;3.27;;
13455;SDS011;6800;50.940;6.940;2023-04-24T17:05:26;5.00;;;3.20;;
13455;SDS011;6800;50.940;6.940;2023-04-24T17:09:27;3.67;;;2.93;;
13455;SDS011;6800;50.940;6.940;2023-04-24T17:13:29;5.37;;;3.80;;
13455;SDS011;6800;50.940;6.940;2023-04-24T17:17:30;3.77;;;3.13;;
13455;SDS011;6800;50.940;6.940;2023-04-24T17:21:32;4.83;;;2.90;;
13455;SDS011;6800;50.940;6.940;2023-04-24T17:25:34;3.00;;;2.30;;
13455;SDS011;6800;50.940;6.940;2023-04-24T17:29:35;3.83;;;2.73;;
13455;SDS011;6800;50.940;6.940;2023-04-24T17:33:37;4.03;;;2.80;;
13455;SDS011;6800;50.940;6.940;2023-04-24T17:37:38;5.97;;;3.90;;
13455;SDS011;6800;50.940;6.940;2023-04-24T17:41:39;6.70;;;5.13;;
13455;SDS011;6800;50.940;6.940;2023-04-24T17:45:41;6.43;;;3.70;;
13455;SDS011;6800;50.940;6.940;2023-04-24T17:49:42;5.03;;;3.13;;
13455;SDS011;6800;50.940;6.940;2023-04-24T17:53:44;7.10;;;3.83;;
13455;SDS011;6800;50.940;6.940;2023-04-24T17:57:45;3.73;;;2.60;;
13455;SDS011;6800;50.940;6.940;2023-04-24T18:01:46;5.40;;;3.07;;
13455;SDS011;6800;50.940;6.940;2023-04-24T18:05:48;4.40;;;2.37;;
13455;SDS011;6800;50.940;6.940;2023-04-24T18:09:49;3.73;;;2.30;;
13455;SDS011;6800;50.940;6.940;2023-04-24T18:13:51;4.30;;;2.50;;
13455;SDS011;6800;50.940;6.940;2023-04-24T18:17:53;5.63;;;3.17;;
13455;SDS011;6800;50.940;6.940;2023-04-24T18:21:54;5.07;;;2.60;;
13455;SDS011;6800;50.940;6.940;2023-04-24T18:25:55;4.23;;;2.70;;
13455;SDS011;6800;50.940;6.940;2023-04-24T18:29:57;3.80;;;2.80;;
13455;SDS011;6800;50.940;6.940;2023-04-24T18:33:59;4.50;;;2.87;;
13455;SDS011;6800;50.940;6.940;2023-04-24T18:38:00;3.77;;;2.50;;
13455;SDS011;6800;50.940;6.940;2023-04-24T18:42:02;3.60;;;2.63;;
13455;SDS011;6800;50.940;6.940;2023-04-24T18:46:03;3.47;;;3.00;;
13455;SDS011;6800;50.940;6.940;2023-04-24T18:50:05;4.80;;;2.90;;
13455;SDS011;6800;50.940;6.940;2023-04-24T18:54:07;3.47;;;2.63;;
13455;SDS011;6800;50.940;6.940;2023-04-24T18:58:08;4.57;;;2.87;;
13455;SDS011;6800;50.940;6.940;2023-04-24T19:02:10;7.70;;;3.17;;
13455;SDS011;6800;50.940;6.940;2023-04-24T19:06:12;5.20;;;3.10;;
13455;SDS011;6800;50.940;6.940;2023-04-24T19:10:13;6.33;;;3.00;;
13455;SDS011;6800;50.940;6.940;2023-04-24T19:14:14;5.07;;;3.00;;
13455;SDS011;6800;50.940;6.940;2023-04-24T19:18:16;3.80;;;3.03;;
13455;SDS011;6800;50.940;6.940;2023-04-24T19:22:18;3.47;;;3.17;;
13455;SDS011;6800;50.940;6.940;2023-04-24T19:26:20;4.23;;;3.10;;
13455;SDS011;6800;50.940;6.940;2023-04-24T19:30:23;5.30;;;3.90;;
13455;SDS011;6800;50.940;6.940;2023-04-24T19:34:25;4.17;;;3.07;;
13455;SDS011;6800;50.940;6.940;2023-04-24T19:38:26;4.17;;;3.20;;
13455;SDS011;6800;50.940;6.940;2023-04-24T19:42:28;7.77;;;5.30;;
13455;SDS011;6800;50.940;6.940;2023-04-24T19:46:45;10.90;;;6.90;;
13455;SDS011;6800;50.940;6.940;2023-04-24T19:50:46;6.20;;;5.23;;
13455;SDS011;6800;50.940;6.940;2023-04-24T19:54:48;6.03;;;4.17;;
13455;SDS011;6800;50.940;6.940;2023-04-24T19:58:52;5.03;;;3.30;;
13455;SDS011;6800;50.940;6.940;2023-04-24T20:02:54;4.87;;;3.70;;
13455;SDS011;6800;50.940;6.940;2023-04-24T20:06:56;5.80;;;3.77;;
13455;SDS011;6800;50.940;6.940;2023-04-24T20:10:57;4.47;;;3.63;;
13455;SDS011;6800;50.940;6.940;2023-04-24T20:14:58;4.93;;;3.50;;
13455;SDS011;6800;50.940;6.940;2023-04-24T20:19:01;4.60;;;3.70;;
13455;SDS011;6800;50.940;6.940;2023-04-24T20:23:02;5.30;;;3.67;;
13455;SDS011;6800;50.940;6.940;2023-04-24T20:27:05;5.80;;;3.50;;
13455;SDS011;6800;50.940;6.940;2023-04-24T20:31:06;5.77;;;3.70;;
13455;SDS011;6800;50.940;6.940;2023-04-24T20:35:08;8.33;;;6.33;;
13455;SDS011;6800;50.940;6.940;2023-04-24T20:39:10;8.67;;;5.00;;
13455;SDS011;6800;50.940;6.940;2023-04-24T20:43:12;6.33;;;4.03;;
13455;SDS011;6800;50.940;6.940;2023-04-24T20:47:13;6.77;;;4.00;;
13455;SDS011;6800;50.940;6.940;2023-04-24T20:51:15;6.53;;;4.50;;
13455;SDS011;6800;50.940;6.940;2023-04-24T20:55:17;8.13;;;3.90;;
13455;SDS011;6800;50.940;6.940;2023-04-24T20:59:18;7.53;;;4.23;;
13455;SDS011;6800;50.940;6.940;2023-04-24T21:03:20;6.23;;;4.03;;
13455;SDS011;6800;50.940;6.940;2023-04-24T21:07:21;5.83;;;4.20;;
13455;SDS011;6800;50.940;6.940;2023-04-24T21:11:23;9.43;;;4.87;;
13455;SDS011;6800;50.940;6.940;2023-04-24T21:15:24;7.67;;;4.90;;
13455;SDS011;6800;50.940;6.940;2023-04-24T21:19:26;7.93;;;4.30;;
13455;SDS011;6800;50.940;6.940;2023-04-24T21:23:27;7.80;;;3.90;;
13455;SDS011;6800;50.940;6.940;2023-04-24T21:27:29;6.70;;;4.40;;
13455;SDS011;6800;50.940;6.940;2023-04-24T21:31:30;8.37;;;4.73;;
13455;SDS011;6800;50.940;6.940;2023-04-24T21:35:32;7.67;;;6.23;;
13455;SDS011;6800;50.940;6.940;2023-04-24T21:39:33;8.87;;;4.90;;
13455;SDS011;6800;50.940;6.940;2023-04-24T21:43:35;6.47;;;4.53;;
13455;SDS011;6800;50.940;6.940;2023-04-24T21:47:45;7.07;;;4.53;;
13455;SDS011;6800;50.940;6.940;2023-04-24T21:51:46;7.90;;;5.23;;
13455;SDS011;6800;50.940;6.940;2023-04-24T21:55:48;6.97;;;4.90;;
13455;SDS011;6800;50.940;6.940;2023-04-24T21:59:49;7.23;;;5.30;;
13455;SDS011;6800;50.940;6.940;2023-04-24T22:03:51;8.50;;;4.97;;
13455;SDS011;6800;50.940;6.940;2023-04-24T22:07:53;5.97;;;4.63;;
13455;SDS011;6800;50.940;6.940;2023-04-24T22:11:56;9.47;;;6.00;;
13455;SDS011;6800;50.940;6.940;2023-04-24T22:15:57;8.33;;;5.17;;
13455;SDS011;6800;50.940;6.940;2023-04-24T22:19:59;8.47;;;5.37;;
13455;SDS011;6800;50.940;6.940;2023-04-24T22:24:01;11.37;;;5.33;;
13455;SDS011;6800;50.940;6.940;2023-04-24T22:28:02;10.27;;;5.70;;
13455;SDS011;6800;50.940;6.940;2023-04-24T22:32:04;7.57;;;4.80;;
13455;SDS011;6800;50.940;6.940;2023-04-24T22:36:05;11.27;;;4.77;;
13455;SDS011;6800;50.940;6.940;2023-04-24T22:40:07;8.50;;;5.20;;
13455;SDS011;6800;50.940;6.940;2023-04-24T22:44:11;10.00;;;5.07;;
13455;SDS011;6800;50.940;6.940;2023-04-24T22:48:13;9.00;;;5.03;;
13455;SDS011;6800;50.940;6.940;2023-04-24T22:52:14;8.37;;;5.30;;
13455;SDS011;6800;50.940;6.940;2023-04-24T22:56:17;6.67;;;4.60;;
13455;SDS011;6800;50.940;6.940;2023-04-24T23:00:18;9.73;;;5.93;;
13455;SDS011;6800;50.940;6.940;2023-04-24T23:04:20;6.20;;;4.50;;
13455;SDS011;6800;50.940;6.940;2023-04-24T23:08:22;8.67;;;5.50;;
13455;SDS011;6800;50.940;6.940;2023-04-24T23:12:23;7.73;;;5.20;;
13455;SDS011;6800;50.940;6.940;2023-04-24T23:16:26;9.80;;;5.57;;
13455;SDS011;6800;50.940;6.940;2023-04-24T23:20:30;8.73;;;5.37;;
13455;SDS011;6800;50.940;6.940;2023-04-24T23:24:32;10.80;;;5.53;;
13455;SDS011;6800;50.940;6.940;2023-04-24T23:28:33;10.80;;;5.23;;
13455;SDS011;6800;50.940;6.940;2023-04-24T23:32:36;11.43;;;5.10;;
13455;SDS011;6800;50.940;6.940;2023-04-24T23:36:37;7.73;;;5.53;;
13455;SDS011;6800;50.940;6.940;2023-04-24T23:40:39;7.27;;;5.67;;
13455;SDS011;6800;50.940;6.940;2023-04-24T23:44:40;10.30;;;5.23;;
13455;SDS011;6800;50.940;6.940;2023-04-24T23:48:41;12.27;;;6.60;;
13455;SDS011;6800;50.940;6.940;2023-04-24T23:52:43;11.17;;;6.20;;
13455;SDS011;6800;50.940;6.940;2023-04-24T23:56:45;11.43;;;6.00;;
